Terminal Aerodrome Forecast
Issued by NWS

Home | Current Version | Previous Version | Text Only | Print | Product List | Glossary On
Versions: 1 2 3 4 5 6 7 8 9 10 11 12 13 14
000
FTUS41 KBTV 252331
TAFRUT
TAF
KRUT 252331Z 2600/2624 12015G25KT P6SM -SHRA SCT025 BKN035 OVC050
      TEMPO 2600/2604 6SM -SHRA BR BKN025
     FM260400 12008G16KT P6SM -SHRA OVC028
     FM260700 11009KT P6SM -SHRA OVC024
     FM261200 VRB04KT P6SM -SHRA OVC014
     FM261400 33005KT 5SM -SHRA BR OVC008
     FM262000 33007G14KT P6SM VCSH OVC014=

USA.gov is the U.S. government's official web portal to all federal, state and local government web resources and services.